createdAt,value
2018-02-02T00:01:32.695Z,39.00
2018-02-02T00:02:37.040Z,40.00
2018-02-02T00:03:41.263Z,31.50
2018-02-02T00:04:45.564Z,38.00
2018-02-02T00:05:50.320Z,34.00
2018-02-02T00:06:54.820Z,22.50
2018-02-02T00:07:59.133Z,38.00
2018-02-02T00:09:03.424Z,55.50
2018-02-02T00:10:07.688Z,41.50
2018-02-02T00:11:12.008Z,35.50
2018-02-02T00:12:16.257Z,42.50
2018-02-02T00:13:20.546Z,51.00
2018-02-02T00:14:24.748Z,40.50
2018-02-02T00:15:29.206Z,36.00
2018-02-02T00:16:33.453Z,28.00
2018-02-02T00:17:37.700Z,41.00
2018-02-02T00:18:42.275Z,37.00
2018-02-02T00:19:46.464Z,44.50
2018-02-02T00:20:51.547Z,35.50
2018-02-02T00:21:55.896Z,49.00
2018-02-02T00:23:00.115Z,44.00
2018-02-02T00:24:04.420Z,57.50
2018-02-02T00:25:08.952Z,40.00
2018-02-02T00:26:13.168Z,42.00
2018-02-02T00:27:17.440Z,48.50
2018-02-02T00:28:21.633Z,38.50
2018-02-02T00:29:25.902Z,41.50
2018-02-02T00:30:30.277Z,37.00
2018-02-02T00:31:34.829Z,40.00
2018-02-02T00:32:39.033Z,50.50
2018-02-02T00:33:44.828Z,37.00
2018-02-02T00:34:50.151Z,37.00
2018-02-02T00:35:54.353Z,40.00
2018-02-02T00:36:58.534Z,21.50
2018-02-02T00:44:21.219Z,36.50
2018-02-02T00:45:25.661Z,46.00
2018-02-02T00:46:29.960Z,37.50
2018-02-02T00:47:34.159Z,37.00
2018-02-02T00:48:38.303Z,33.00
2018-02-02T00:49:42.519Z,43.00
2018-02-02T00:52:02.589Z,36.00
2018-02-02T00:53:06.743Z,32.00
2018-02-02T00:54:10.903Z,34.00
2018-02-02T00:55:15.042Z,28.50
2018-02-02T00:56:19.432Z,37.00
2018-02-02T00:57:23.637Z,28.50
2018-02-02T00:58:27.798Z,25.50
2018-02-02T00:59:32.042Z,35.50
2018-02-02T01:00:36.405Z,38.00
2018-02-02T01:01:40.980Z,35.50
2018-02-02T01:02:45.899Z,24.00
2018-02-02T01:03:50.053Z,41.50
2018-02-02T01:04:54.242Z,19.00
2018-02-02T01:05:58.403Z,39.50
2018-02-02T01:07:02.638Z,42.00
2018-02-02T01:08:06.837Z,44.50
2018-02-02T01:09:11.347Z,44.00
2018-02-02T01:10:15.520Z,27.00
2018-02-02T01:11:19.659Z,32.00
2018-02-02T01:12:23.849Z,34.50
2018-02-02T01:13:28.018Z,26.50
2018-02-02T01:19:22.926Z,24.00
2018-02-02T01:20:27.150Z,47.50
2018-02-02T01:21:31.346Z,37.50
2018-02-02T01:22:35.546Z,35.00
2018-02-02T01:23:39.803Z,32.50
2018-02-02T01:24:43.922Z,35.50
2018-02-02T01:25:48.190Z,36.00
2018-02-02T01:26:52.302Z,39.00
2018-02-02T01:27:56.862Z,47.50
2018-02-02T01:29:02.000Z,49.50
2018-02-02T01:30:07.129Z,39.50
2018-02-02T01:31:11.520Z,30.00
2018-02-02T01:32:16.080Z,32.50
2018-02-02T01:33:20.216Z,34.50
2018-02-02T01:34:24.636Z,38.50
2018-02-02T01:35:28.764Z,29.50
2018-02-02T01:36:33.962Z,41.00
2018-02-02T01:37:38.137Z,32.00
2018-02-02T01:38:42.253Z,41.50
2018-02-02T01:39:46.382Z,34.50
2018-02-02T01:40:50.848Z,34.50
2018-02-02T01:41:55.091Z,50.50
2018-02-02T01:42:59.217Z,31.50
2018-02-02T01:44:04.240Z,30.50
2018-02-02T01:45:08.761Z,40.00
2018-02-02T01:46:13.222Z,56.00
2018-02-02T01:47:17.434Z,36.50
2018-02-02T01:48:22.593Z,31.00
2018-02-02T01:49:26.763Z,26.00
2018-02-02T01:50:31.233Z,35.00
2018-02-02T01:51:35.671Z,39.00
2018-02-02T01:52:39.882Z,38.00
2018-02-02T01:53:44.050Z,35.50
2018-02-02T01:54:48.601Z,42.00
2018-02-02T01:57:09.463Z,35.00
2018-02-02T01:58:13.896Z,35.50
2018-02-02T01:59:18.012Z,34.00
2018-02-02T02:00:22.425Z,28.00
2018-02-02T02:01:26.562Z,37.00
2018-02-02T02:02:30.790Z,28.50
2018-02-02T02:03:34.954Z,44.50
2018-02-02T02:04:39.370Z,25.50
2018-02-02T02:05:43.484Z,48.00
2018-02-02T02:06:47.627Z,38.00
2018-02-02T02:07:51.863Z,33.50
2018-02-02T02:08:56.048Z,36.50
2018-02-02T02:10:00.278Z,46.00
2018-02-02T02:11:04.745Z,38.00
2018-02-02T02:12:09.086Z,37.00
2018-02-02T02:13:13.238Z,40.50
2018-02-02T02:14:17.331Z,48.50
2018-02-02T02:15:21.716Z,38.00
2018-02-02T02:16:25.820Z,47.00
2018-02-02T02:17:30.127Z,31.00
2018-02-02T02:18:34.263Z,26.00
2018-02-02T02:19:39.176Z,25.00
2018-02-02T02:20:43.339Z,37.00
2018-02-02T02:21:47.554Z,44.00
2018-02-02T02:22:52.137Z,47.50
2018-02-02T02:23:58.170Z,30.50
2018-02-02T02:25:02.364Z,50.50
2018-02-02T02:26:06.507Z,62.50
2018-02-02T02:27:10.723Z,57.50
2018-02-02T02:28:15.195Z,32.00
2018-02-02T02:29:19.376Z,36.00
2018-02-02T02:30:24.079Z,43.50
2018-02-02T02:31:28.346Z,43.50
2018-02-02T02:32:32.741Z,41.00
2018-02-02T02:33:37.461Z,48.00
2018-02-02T02:34:41.914Z,56.00
2018-02-02T02:35:46.143Z,44.00
2018-02-02T02:36:50.257Z,44.50
2018-02-02T02:37:54.405Z,42.50
2018-02-02T02:38:59.525Z,45.50
2018-02-02T02:40:03.692Z,51.50
2018-02-02T02:41:08.178Z,46.00
2018-02-02T02:42:12.375Z,41.50
2018-02-02T02:43:16.489Z,46.00
2018-02-02T02:44:20.634Z,47.50
2018-02-02T02:45:24.862Z,78.50
2018-02-02T02:46:29.005Z,47.00
2018-02-02T02:47:33.553Z,37.50
2018-02-02T02:48:37.670Z,52.50
2018-02-02T02:49:41.820Z,49.50
2018-02-02T03:01:55.514Z,39.50
2018-02-02T03:02:59.633Z,45.50
2018-02-02T03:04:03.846Z,50.00
2018-02-02T03:05:09.102Z,35.50
2018-02-02T03:06:13.220Z,44.50
2018-02-02T03:07:17.424Z,57.00
2018-02-02T03:08:21.594Z,58.00
2018-02-02T03:09:25.789Z,52.50
2018-02-02T03:10:29.954Z,39.00
2018-02-02T03:11:34.995Z,55.50
2018-02-02T03:12:39.127Z,39.50
2018-02-02T03:13:43.313Z,67.00
2018-02-02T03:14:47.467Z,45.50
2018-02-02T03:15:51.973Z,56.50
2018-02-02T03:16:56.639Z,44.50
2018-02-02T03:18:01.119Z,42.50
2018-02-02T03:19:05.594Z,38.50
2018-02-02T03:20:09.750Z,57.50
2018-02-02T03:21:14.445Z,42.00
2018-02-02T03:22:18.843Z,66.50
2018-02-02T03:23:23.672Z,53.50
2018-02-02T03:24:28.235Z,44.00
2018-02-02T03:25:32.442Z,58.50
2018-02-02T03:26:37.355Z,50.50
2018-02-02T03:27:41.491Z,44.50
2018-02-02T03:28:45.673Z,50.00
2018-02-02T03:33:51.001Z,56.00
2018-02-02T03:34:55.198Z,46.50
2018-02-02T03:35:59.602Z,47.50
2018-02-02T03:37:03.688Z,48.00
2018-02-02T03:38:07.897Z,44.50
2018-02-02T03:39:12.053Z,50.50
2018-02-02T03:40:16.261Z,51.50
2018-02-02T03:41:20.392Z,31.50
2018-02-02T03:42:24.937Z,39.00
2018-02-02T03:43:29.050Z,54.00
2018-02-02T03:44:33.149Z,52.50
2018-02-02T03:45:38.309Z,53.00
2018-02-02T03:46:42.475Z,31.50
2018-02-02T03:47:46.919Z,34.50
2018-02-02T03:48:51.050Z,33.00
2018-02-02T03:49:55.280Z,44.50
2018-02-02T03:50:59.410Z,36.00
2018-02-02T03:52:03.596Z,48.50
2018-02-02T03:53:07.698Z,57.50
2018-02-02T03:54:12.129Z,26.50
2018-02-02T03:55:17.001Z,25.50
2018-02-02T03:56:21.151Z,51.50
2018-02-02T03:57:25.324Z,39.50
2018-02-02T03:58:30.402Z,42.00
2018-02-02T03:59:34.595Z,39.00
2018-02-02T04:00:39.613Z,46.00
2018-02-02T04:01:43.723Z,29.00
2018-02-02T04:02:47.837Z,41.00
2018-02-02T04:03:51.918Z,47.50
2018-02-02T04:04:56.109Z,35.50
2018-02-02T04:06:00.229Z,31.00
2018-02-02T04:07:04.696Z,41.50
2018-02-02T04:08:08.916Z,27.50
2018-02-02T04:09:13.069Z,22.00
2018-02-02T04:10:18.061Z,33.50
2018-02-02T04:11:22.193Z,55.00
2018-02-02T04:12:26.365Z,44.00
2018-02-02T04:13:30.508Z,46.50
2018-02-02T04:14:34.625Z,41.50
2018-02-02T04:15:40.227Z,34.50
2018-02-02T04:16:45.301Z,37.00
2018-02-02T04:17:49.395Z,36.00
2018-02-02T04:18:53.864Z,32.50
2018-02-02T04:19:59.030Z,35.00
2018-02-02T04:21:03.176Z,29.50
2018-02-02T04:27:44.195Z,40.50
2018-02-02T04:28:48.315Z,41.50
2018-02-02T04:29:52.529Z,45.00
2018-02-02T04:30:56.949Z,33.50
2018-02-02T04:32:01.523Z,25.50
2018-02-02T04:33:05.650Z,41.00
2018-02-02T04:34:09.900Z,36.50
2018-02-02T04:35:14.136Z,45.00
2018-02-02T04:36:18.889Z,45.50
2018-02-02T04:37:23.141Z,41.50
2018-02-02T04:38:27.369Z,35.00
2018-02-02T04:39:31.656Z,35.50
2018-02-02T04:40:35.929Z,42.00
2018-02-02T04:41:40.063Z,27.00
2018-02-02T04:42:44.262Z,38.50
2018-02-02T04:43:48.466Z,34.50
2018-02-02T04:44:53.047Z,54.50
2018-02-02T04:45:57.422Z,37.00
2018-02-02T04:47:01.535Z,24.00
2018-02-02T04:48:05.722Z,32.00
2018-02-02T04:49:09.961Z,32.50
2018-02-02T04:57:02.430Z,33.50
2018-02-02T04:58:06.648Z,36.50
2018-02-02T04:59:10.777Z,24.00
2018-02-02T05:00:16.975Z,34.50
2018-02-02T05:01:21.738Z,41.00
2018-02-02T05:02:26.186Z,22.00
2018-02-02T05:03:30.406Z,33.50
2018-02-02T05:04:34.564Z,32.50
2018-02-02T05:05:38.696Z,26.50
2018-02-02T05:06:42.802Z,40.00
2018-02-02T05:07:47.025Z,23.50
2018-02-02T05:08:51.152Z,27.50
2018-02-02T05:09:55.274Z,42.00
2018-02-02T05:10:59.386Z,36.50
2018-02-02T05:12:03.566Z,41.00
2018-02-02T05:13:07.764Z,40.00
2018-02-02T05:14:11.887Z,40.50
2018-02-02T05:15:16.533Z,36.50
2018-02-02T05:16:21.857Z,25.50
2018-02-02T05:17:25.970Z,29.50
2018-02-02T05:18:30.317Z,36.50
2018-02-02T05:19:34.807Z,29.00
2018-02-02T05:20:38.924Z,31.00
2018-02-02T05:21:43.440Z,27.50
2018-02-02T05:22:47.569Z,37.00
2018-02-02T05:23:52.143Z,40.50
2018-02-02T05:24:56.258Z,35.50
2018-02-02T05:26:01.142Z,40.50
2018-02-02T05:27:05.239Z,47.00
2018-02-02T05:28:09.679Z,32.50
2018-02-02T05:29:13.927Z,38.00
2018-02-02T05:30:18.383Z,54.50
2018-02-02T05:31:22.891Z,54.00
2018-02-02T05:32:27.008Z,42.50
2018-02-02T05:36:03.832Z,35.00
2018-02-02T05:37:07.965Z,33.50
2018-02-02T05:38:12.070Z,40.50
2018-02-02T05:39:16.212Z,23.50
2018-02-02T05:40:20.842Z,36.00
2018-02-02T05:41:24.966Z,33.00
2018-02-02T05:42:29.106Z,43.50
2018-02-02T05:43:34.175Z,38.00
2018-02-02T05:44:39.269Z,31.00
2018-02-02T05:45:43.812Z,54.50
2018-02-02T05:46:48.229Z,36.50
2018-02-02T05:47:52.408Z,35.50
2018-02-02T05:48:56.514Z,35.00
2018-02-02T05:50:00.618Z,29.50
2018-02-02T05:51:04.786Z,42.50
2018-02-02T05:52:08.894Z,38.00
2018-02-02T05:53:13.368Z,40.00
2018-02-02T05:54:17.643Z,41.50
2018-02-02T05:55:21.759Z,27.00
2018-02-02T05:56:25.985Z,40.00
2018-02-02T05:57:30.114Z,36.00
2018-02-02T05:58:34.568Z,34.50
2018-02-02T05:59:39.330Z,34.50
2018-02-02T06:00:43.993Z,49.50
2018-02-02T06:01:48.446Z,43.00
2018-02-02T06:02:52.594Z,34.00
2018-02-02T06:03:56.781Z,35.50
2018-02-02T06:05:01.599Z,57.50
2018-02-02T06:06:05.774Z,52.00
2018-02-02T06:07:09.969Z,35.50
2018-02-02T06:08:14.120Z,43.50
2018-02-02T06:09:18.285Z,28.00
2018-02-02T06:10:22.751Z,30.00
2018-02-02T06:11:26.959Z,32.00
2018-02-02T06:12:31.071Z,36.50
2018-02-02T06:13:35.215Z,19.00
2018-02-02T06:14:39.402Z,37.50
2018-02-02T06:15:43.570Z,36.50
2018-02-02T06:16:48.212Z,35.00
2018-02-02T06:17:52.353Z,43.00
2018-02-02T06:18:56.657Z,38.00
2018-02-02T06:20:01.450Z,46.00
2018-02-02T06:21:05.570Z,40.50
2018-02-02T06:22:09.798Z,44.50
2018-02-02T06:23:14.273Z,41.50
2018-02-02T06:24:18.417Z,35.00
2018-02-02T06:25:22.565Z,26.50
2018-02-02T06:26:26.712Z,44.50
2018-02-02T06:27:30.939Z,35.50
2018-02-02T06:28:35.736Z,40.00
2018-02-02T06:29:39.875Z,30.00
2018-02-02T06:33:11.013Z,38.00
2018-02-02T06:34:15.136Z,40.00
2018-02-02T06:35:19.390Z,36.50
2018-02-02T06:36:23.548Z,43.50
2018-02-02T06:37:27.773Z,43.00
2018-02-02T06:38:31.899Z,46.00
2018-02-02T06:39:36.005Z,41.00
2018-02-02T06:40:41.331Z,44.00
2018-02-02T06:41:45.422Z,40.50
2018-02-02T06:42:49.682Z,39.00
2018-02-02T06:43:53.857Z,47.00
2018-02-02T06:44:57.973Z,33.50
2018-02-02T06:46:03.530Z,48.50
2018-02-02T06:47:07.949Z,41.00
2018-02-02T06:48:12.170Z,39.50
2018-02-02T06:49:16.294Z,24.50
2018-02-02T06:50:20.489Z,53.50
2018-02-02T06:51:24.631Z,30.00
2018-02-02T06:52:28.745Z,38.50
2018-02-02T06:53:33.296Z,54.00
2018-02-02T06:54:37.401Z,49.50
2018-02-02T06:55:41.661Z,45.50
2018-02-02T06:56:45.786Z,48.50
2018-02-02T06:57:49.909Z,50.00
2018-02-02T06:58:54.116Z,29.00
2018-02-02T06:59:58.253Z,31.50
2018-02-02T07:01:02.572Z,63.50
2018-02-02T07:02:08.126Z,47.00
2018-02-02T07:03:12.779Z,52.00
2018-02-02T07:04:16.972Z,40.00
2018-02-02T07:05:21.118Z,45.00
2018-02-02T07:06:25.899Z,36.00
2018-02-02T07:07:30.078Z,34.50
2018-02-02T07:08:34.172Z,56.00
2018-02-02T07:09:39.122Z,54.00
2018-02-02T07:10:43.255Z,61.00
2018-02-02T07:31:03.670Z,33.00
2018-02-02T07:32:07.828Z,36.00
2018-02-02T07:33:11.973Z,38.00
2018-02-02T07:34:16.215Z,41.50
2018-02-02T07:35:20.494Z,36.00
2018-02-02T07:36:24.994Z,40.00
2018-02-02T07:37:29.126Z,33.00
2018-02-02T07:38:33.273Z,37.50
2018-02-02T07:39:38.441Z,45.00
2018-02-02T07:40:42.680Z,32.50
2018-02-02T07:41:46.906Z,31.00
2018-02-02T07:42:51.366Z,37.00
2018-02-02T07:43:55.510Z,31.50
2018-02-02T07:47:52.014Z,29.50
2018-02-02T07:48:56.365Z,41.00
2018-02-02T07:50:01.553Z,38.00
2018-02-02T07:51:05.722Z,39.00
2018-02-02T07:52:09.974Z,35.00
2018-02-02T07:53:14.178Z,39.00
2018-02-02T07:54:18.342Z,37.00
2018-02-02T07:55:22.993Z,41.00
2018-02-02T07:56:27.466Z,42.00
2018-02-02T07:57:31.651Z,33.50
2018-02-02T07:58:35.854Z,44.50
2018-02-02T07:59:40.334Z,35.50
2018-02-02T08:00:49.769Z,39.50
2018-02-02T08:01:54.174Z,39.50
2018-02-02T08:02:58.707Z,36.50
2018-02-02T08:04:03.009Z,42.00
2018-02-02T08:05:07.183Z,32.00
2018-02-02T08:06:11.310Z,30.00
2018-02-02T08:07:15.482Z,39.00
2018-02-02T08:08:19.609Z,38.00
2018-02-02T08:09:24.141Z,33.00
2018-02-02T08:10:28.262Z,35.00
2018-02-02T08:11:32.390Z,25.50
2018-02-02T08:12:36.640Z,29.50
2018-02-02T08:13:40.774Z,35.50
2018-02-02T08:14:44.990Z,28.50
2018-02-02T08:15:49.143Z,28.00
2018-02-02T08:16:53.355Z,37.50
2018-02-02T08:17:57.522Z,28.00
2018-02-02T08:19:01.661Z,36.00
2018-02-02T08:20:06.660Z,35.50
2018-02-02T08:21:10.809Z,41.00
2018-02-02T08:22:15.265Z,37.50
2018-02-02T08:23:19.461Z,30.00
2018-02-02T08:24:23.649Z,27.50
2018-02-02T08:25:27.901Z,40.00
2018-02-02T08:26:32.059Z,39.00
2018-02-02T08:27:36.214Z,38.50
2018-02-02T08:28:40.659Z,32.50
2018-02-02T08:29:45.594Z,39.00
2018-02-02T08:36:04.024Z,34.00
2018-02-02T08:37:08.153Z,31.50
2018-02-02T08:38:12.298Z,35.50
2018-02-02T08:39:16.498Z,33.00
2018-02-02T08:40:20.634Z,40.50
2018-02-02T08:41:25.189Z,33.50
2018-02-02T08:42:29.314Z,38.50
2018-02-02T08:43:33.454Z,38.50
2018-02-02T08:44:37.678Z,34.50
2018-02-02T08:45:42.347Z,40.00
2018-02-02T08:46:46.579Z,30.00
2018-02-02T08:47:52.318Z,40.50
2018-02-02T08:48:56.511Z,38.00
2018-02-02T08:50:00.668Z,33.50
2018-02-02T08:51:04.914Z,44.00
2018-02-02T08:52:09.092Z,44.50
2018-02-02T08:53:13.250Z,30.00
2018-02-02T08:54:17.717Z,38.50
2018-02-02T08:55:21.870Z,37.50
2018-02-02T08:56:26.366Z,43.50
2018-02-02T08:57:30.535Z,34.00
2018-02-02T08:58:34.694Z,36.50
2018-02-02T08:59:38.963Z,32.50
2018-02-02T09:00:47.295Z,36.50
2018-02-02T09:01:55.466Z,33.50
2018-02-02T09:02:59.587Z,38.50
2018-02-02T09:04:03.844Z,37.50
2018-02-02T09:05:09.025Z,43.00
2018-02-02T09:06:13.182Z,24.50
2018-02-02T09:07:17.707Z,34.00
2018-02-02T09:08:21.833Z,20.50
2018-02-02T09:09:26.007Z,30.00
2018-02-02T09:10:30.277Z,42.50
2018-02-02T09:11:34.375Z,37.50
2018-02-02T09:12:38.514Z,36.50
2018-02-02T09:13:42.926Z,35.00
2018-02-02T09:14:47.639Z,30.50
2018-02-02T09:15:52.277Z,31.50
2018-02-02T09:16:56.417Z,33.00
2018-02-02T09:18:00.554Z,32.00
2018-02-02T09:19:04.723Z,32.50
2018-02-02T09:20:10.407Z,35.50
2018-02-02T09:21:14.691Z,35.50
2018-02-02T09:22:18.817Z,36.50
2018-02-02T09:23:22.953Z,34.50
2018-02-02T09:24:27.127Z,32.50
2018-02-02T09:25:31.374Z,34.50
2018-02-02T09:26:35.592Z,41.00
2018-02-02T09:27:38.705Z,32.50
2018-02-02T09:28:42.873Z,33.00
2018-02-02T09:29:47.100Z,34.50
2018-02-02T09:30:52.230Z,47.50
2018-02-02T09:31:57.597Z,46.00
2018-02-02T09:34:14.881Z,40.50
2018-02-02T09:35:19.095Z,36.50
2018-02-02T09:36:23.297Z,36.00
2018-02-02T09:37:27.981Z,38.00
2018-02-02T09:38:32.173Z,45.00
2018-02-02T09:39:36.322Z,36.50
2018-02-02T09:40:41.710Z,34.50
2018-02-02T09:41:45.942Z,27.00
2018-02-02T09:42:50.278Z,34.00
2018-02-02T09:43:55.497Z,30.00
2018-02-02T09:44:59.797Z,27.00
2018-02-02T09:46:04.311Z,36.00
2018-02-02T09:47:09.578Z,24.50
2018-02-02T09:48:14.418Z,26.00
2018-02-02T09:49:18.589Z,31.50
2018-02-02T09:50:23.171Z,28.00
2018-02-02T09:51:27.326Z,32.00
2018-02-02T09:52:31.572Z,38.50
2018-02-02T09:53:35.738Z,29.50
2018-02-02T09:54:39.879Z,38.00
2018-02-02T09:55:44.407Z,30.00
2018-02-02T09:56:48.641Z,38.00
2018-02-02T09:57:52.898Z,34.00
2018-02-02T09:58:57.079Z,40.00
2018-02-02T10:00:01.298Z,43.00
2018-02-02T10:01:05.534Z,34.50
2018-02-02T10:02:10.341Z,42.00
2018-02-02T10:03:14.622Z,35.00
2018-02-02T10:04:18.797Z,34.00
2018-02-02T10:05:22.946Z,42.00
2018-02-02T10:06:27.195Z,37.50
2018-02-02T10:07:31.327Z,32.00
2018-02-02T10:08:35.881Z,29.50
2018-02-02T10:09:40.022Z,34.50
2018-02-02T10:10:44.167Z,36.50
2018-02-02T10:11:49.455Z,37.00
2018-02-02T10:12:53.899Z,35.50
2018-02-02T10:13:58.099Z,30.50
2018-02-02T10:15:04.083Z,27.50
2018-02-02T10:16:08.389Z,40.00
2018-02-02T10:17:12.552Z,31.00
2018-02-02T10:18:16.766Z,27.00
2018-02-02T10:19:20.959Z,26.00
2018-02-02T10:20:25.774Z,24.50
2018-02-02T10:21:29.968Z,31.50
2018-02-02T10:32:01.463Z,36.50
2018-02-02T10:33:06.722Z,33.00
2018-02-02T10:34:10.962Z,36.50
2018-02-02T10:35:15.122Z,31.00
2018-02-02T10:36:19.360Z,33.00
2018-02-02T10:37:23.816Z,41.00
2018-02-02T10:38:27.972Z,33.50
2018-02-02T10:39:32.236Z,36.00
2018-02-02T10:40:36.432Z,38.00
2018-02-02T10:41:40.584Z,35.50
2018-02-02T10:42:44.692Z,34.00
2018-02-02T10:43:49.314Z,31.50
2018-02-02T10:44:54.219Z,30.50
2018-02-02T10:45:58.741Z,36.50
2018-02-02T10:47:03.842Z,31.00
2018-02-02T10:48:08.339Z,34.50
2018-02-02T10:49:12.513Z,33.00
2018-02-02T10:50:16.767Z,33.00
2018-02-02T10:51:20.955Z,34.50
2018-02-02T10:52:25.146Z,34.50
2018-02-02T10:53:29.334Z,30.50
2018-02-02T10:54:33.587Z,34.00
2018-02-02T10:55:37.848Z,34.50
2018-02-02T10:56:42.370Z,33.50
2018-02-02T10:57:46.548Z,30.50
2018-02-02T10:58:50.799Z,32.00
2018-02-02T10:59:56.453Z,31.50
2018-02-02T11:01:04.863Z,30.00
2018-02-02T11:02:15.100Z,35.50
2018-02-02T11:03:21.249Z,34.50
2018-02-02T11:04:25.618Z,33.50
2018-02-02T11:05:29.867Z,32.00
2018-02-02T11:06:34.100Z,34.50
2018-02-02T11:07:38.346Z,24.50
2018-02-02T11:08:42.883Z,27.00
2018-02-02T11:09:47.039Z,22.50
2018-02-02T11:10:51.291Z,26.50
2018-02-02T11:11:55.603Z,24.00
2018-02-02T11:12:59.745Z,26.50
2018-02-02T11:14:04.557Z,26.00
2018-02-02T11:15:09.941Z,25.50
2018-02-02T11:16:14.453Z,32.00
2018-02-02T11:17:18.934Z,27.50
2018-02-02T11:18:23.113Z,27.00
2018-02-02T11:19:27.544Z,24.00
2018-02-02T11:20:31.984Z,22.00
2018-02-02T11:21:36.134Z,24.00
2018-02-02T11:22:40.356Z,30.00
2018-02-02T11:23:45.529Z,34.50
2018-02-02T11:37:11.126Z,22.00
2018-02-02T11:38:15.569Z,20.00
2018-02-02T11:39:19.718Z,21.50
2018-02-02T11:40:24.560Z,23.00
2018-02-02T11:41:28.977Z,29.00
2018-02-02T11:42:33.291Z,22.50
2018-02-02T11:43:37.497Z,22.00
2018-02-02T11:44:41.787Z,21.00
2018-02-02T11:45:46.354Z,25.50
2018-02-02T11:46:50.579Z,26.50
2018-02-02T11:47:55.139Z,20.00
2018-02-02T11:49:00.102Z,23.00
2018-02-02T11:50:04.399Z,18.00
2018-02-02T11:51:08.583Z,19.00
2018-02-02T11:52:12.781Z,26.00
2018-02-02T11:53:17.022Z,18.00
2018-02-02T11:54:21.474Z,28.00
2018-02-02T11:55:25.752Z,19.50
2018-02-02T11:56:29.990Z,28.00
2018-02-02T11:57:34.174Z,23.00
2018-02-02T11:58:38.418Z,22.50
2018-02-02T11:59:42.605Z,23.50
2018-02-02T12:00:47.235Z,18.00
2018-02-02T12:01:51.574Z,21.50
2018-02-02T12:02:55.779Z,17.50
2018-02-02T12:03:59.918Z,25.00
2018-02-02T12:05:04.145Z,33.50
2018-02-02T12:06:09.057Z,22.50
2018-02-02T12:07:13.333Z,21.50
2018-02-02T12:08:17.494Z,22.00
2018-02-02T12:09:21.833Z,19.50
2018-02-02T12:15:52.617Z,33.00
2018-02-02T12:16:57.065Z,25.00
2018-02-02T12:18:01.928Z,23.00
2018-02-02T12:19:06.217Z,26.00
2018-02-02T12:20:10.583Z,24.50
2018-02-02T12:21:14.934Z,24.00
2018-02-02T12:22:19.224Z,25.00
2018-02-02T12:23:23.558Z,20.50
2018-02-02T12:24:28.019Z,21.50
2018-02-02T12:25:32.683Z,26.50
2018-02-02T12:26:37.130Z,29.50
2018-02-02T12:27:41.529Z,24.00
2018-02-02T12:28:45.900Z,20.00
2018-02-02T12:29:50.310Z,24.50
2018-02-02T12:30:55.089Z,28.00
2018-02-02T12:31:59.534Z,24.00
2018-02-02T12:33:03.829Z,18.00
2018-02-02T12:34:08.151Z,22.00
2018-02-02T12:35:12.491Z,18.00
2018-02-02T12:36:16.830Z,20.00
2018-02-02T12:37:21.558Z,23.50
2018-02-02T12:38:25.950Z,27.00
2018-02-02T12:39:30.292Z,31.50
2018-02-02T12:40:34.648Z,24.00
2018-02-02T12:41:38.899Z,26.00
2018-02-02T12:42:43.191Z,26.00
2018-02-02T12:43:47.342Z,26.00
2018-02-02T12:44:51.510Z,36.00
2018-02-02T12:45:55.767Z,22.00
2018-02-02T12:47:00.026Z,22.00
2018-02-02T12:48:04.234Z,26.50
2018-02-02T12:54:18.578Z,21.50
2018-02-02T12:55:22.964Z,31.50
2018-02-02T12:56:27.171Z,24.00
2018-02-02T12:57:31.379Z,22.50
2018-02-02T12:58:35.771Z,25.50
2018-02-02T12:59:40.063Z,23.00
2018-02-02T13:00:45.156Z,26.50
2018-02-02T13:01:49.496Z,30.50
2018-02-02T13:02:53.755Z,21.50
2018-02-02T13:03:57.958Z,28.00
2018-02-02T13:05:02.247Z,22.00
2018-02-02T13:15:34.867Z,29.50
2018-02-02T13:16:39.067Z,19.50
2018-02-02T13:17:43.328Z,18.50
2018-02-02T13:18:47.870Z,18.00
2018-02-02T13:19:52.543Z,26.00
2018-02-02T13:20:56.915Z,17.50
2018-02-02T13:22:01.973Z,20.50
2018-02-02T13:23:06.203Z,20.00
2018-02-02T13:24:10.976Z,27.00
2018-02-02T13:25:15.185Z,25.00
2018-02-02T13:26:19.450Z,21.00
2018-02-02T13:27:23.715Z,20.50
2018-02-02T13:28:27.971Z,19.50
2018-02-02T13:29:32.607Z,20.00
2018-02-02T13:30:37.419Z,26.00
2018-02-02T13:31:41.860Z,22.50
2018-02-02T13:32:46.162Z,26.00
2018-02-02T13:33:50.348Z,16.00
2018-02-02T13:34:54.783Z,19.50
2018-02-02T13:36:00.011Z,24.50
2018-02-02T13:37:04.201Z,18.00
2018-02-02T13:38:08.383Z,17.00
2018-02-02T13:39:12.616Z,24.00
2018-02-02T13:40:16.879Z,27.50
2018-02-02T13:41:21.184Z,20.00
2018-02-02T13:42:25.725Z,22.00
2018-02-02T13:43:29.963Z,18.00
2018-02-02T13:44:34.273Z,16.00
2018-02-02T13:45:38.500Z,20.00
2018-02-02T13:46:42.815Z,23.00
2018-02-02T13:47:47.015Z,25.50
2018-02-02T13:48:51.527Z,18.00
2018-02-02T13:49:55.906Z,19.00
2018-02-02T13:51:00.129Z,22.50
2018-02-02T13:52:04.353Z,24.50
2018-02-02T13:53:10.024Z,24.00
2018-02-02T13:54:14.327Z,24.50
2018-02-02T13:55:18.634Z,25.50
2018-02-02T13:56:22.867Z,29.50
2018-02-02T13:57:27.032Z,20.00
2018-02-02T13:58:31.287Z,22.00
2018-02-02T13:59:35.607Z,24.00
2018-02-02T14:00:40.023Z,30.50
2018-02-02T14:01:44.252Z,27.00
2018-02-02T14:02:48.428Z,22.50
2018-02-02T14:03:52.747Z,22.50
2018-02-02T14:04:57.020Z,28.50
2018-02-02T14:06:02.488Z,23.50
2018-02-02T14:07:06.810Z,25.50
2018-02-02T14:08:11.711Z,26.00
2018-02-02T14:09:15.930Z,24.00
2018-02-02T14:26:38.690Z,22.00
2018-02-02T14:27:42.865Z,21.50
2018-02-02T14:28:47.123Z,22.50
2018-02-02T14:29:51.409Z,24.50
2018-02-02T14:30:56.342Z,30.50
2018-02-02T14:32:00.908Z,37.00
2018-02-02T14:33:06.528Z,28.00
2018-02-02T14:34:11.004Z,29.50
2018-02-02T14:35:15.518Z,27.50
2018-02-02T14:36:19.871Z,25.50
2018-02-02T14:37:24.446Z,25.00
2018-02-02T14:38:28.643Z,24.50
2018-02-02T14:39:32.875Z,22.00
2018-02-02T14:40:37.072Z,29.50
2018-02-02T14:41:41.327Z,29.00
2018-02-02T14:42:45.570Z,26.00
2018-02-02T14:43:49.820Z,22.00
2018-02-02T14:44:54.142Z,26.50
2018-02-02T14:45:58.568Z,30.00
2018-02-02T14:47:02.836Z,20.50
2018-02-02T14:48:07.117Z,22.50
2018-02-02T14:49:11.683Z,18.50
2018-02-02T14:50:16.561Z,19.50
2018-02-02T14:54:33.130Z,21.00
2018-02-02T14:55:37.327Z,20.00
2018-02-02T14:56:41.636Z,18.50
2018-02-02T14:57:46.072Z,16.00
2018-02-02T14:58:50.267Z,24.00
2018-02-02T14:59:54.616Z,22.00
2018-02-02T15:00:59.702Z,22.00
2018-02-02T15:02:04.032Z,21.00
2018-02-02T15:03:08.936Z,22.50
2018-02-02T15:04:13.194Z,22.00
2018-02-02T15:05:17.472Z,23.00
2018-02-02T15:06:21.717Z,15.00
2018-02-02T15:07:26.692Z,19.00
2018-02-02T15:08:31.003Z,17.50
2018-02-02T15:09:35.452Z,21.50
2018-02-02T15:10:39.766Z,24.00
2018-02-02T15:11:44.122Z,22.00
2018-02-02T15:12:48.446Z,16.00
2018-02-02T15:13:53.027Z,18.50
2018-02-02T15:14:57.323Z,22.00
2018-02-02T15:16:01.817Z,30.00
2018-02-02T15:17:05.055Z,29.00
2018-02-02T15:18:09.500Z,23.00
2018-02-02T15:19:13.851Z,27.00
2018-02-02T15:20:18.228Z,21.00
2018-02-02T15:21:22.649Z,17.00
2018-02-02T15:22:27.457Z,18.00
2018-02-02T15:23:32.001Z,18.00
2018-02-02T15:24:36.496Z,19.50
2018-02-02T15:25:41.184Z,22.00
2018-02-02T15:26:46.491Z,19.00
2018-02-02T15:27:50.971Z,24.50
2018-02-02T15:28:55.320Z,20.50
2018-02-02T15:29:59.712Z,23.00
2018-02-02T15:31:04.277Z,20.00
2018-02-02T15:32:08.577Z,25.50
2018-02-02T15:33:12.954Z,26.00
2018-02-02T15:53:00.572Z,26.00
2018-02-02T15:54:05.421Z,24.00
2018-02-02T15:55:09.856Z,21.00
2018-02-02T15:56:15.589Z,24.50
2018-02-02T15:57:20.948Z,24.50
2018-02-02T15:58:25.523Z,20.00
2018-02-02T15:59:30.583Z,24.50
2018-02-02T16:00:35.619Z,36.00
2018-02-02T16:01:40.643Z,24.00
2018-02-02T16:02:45.768Z,23.50
2018-02-02T16:03:51.660Z,18.00
2018-02-02T16:04:55.942Z,24.00
2018-02-02T16:06:01.047Z,25.00
2018-02-02T16:07:05.345Z,26.00
2018-02-02T16:08:10.166Z,23.00
2018-02-02T16:09:14.742Z,25.00
2018-02-02T16:13:05.656Z,18.00
2018-02-02T16:14:10.762Z,20.00
2018-02-02T16:15:16.993Z,22.00
2018-02-02T16:16:21.248Z,17.50
2018-02-02T16:17:25.936Z,22.00
2018-02-02T16:18:30.308Z,22.50
2018-02-02T16:19:35.216Z,21.00
2018-02-02T16:20:39.516Z,23.50
2018-02-02T16:21:43.739Z,23.50
2018-02-02T16:22:48.242Z,20.00
2018-02-02T16:23:53.524Z,16.50
2018-02-02T16:24:57.840Z,13.50
2018-02-02T16:26:02.938Z,20.00
2018-02-02T16:27:07.446Z,21.00
2018-02-02T16:28:11.664Z,29.50